createdAt,value
2023-05-16T00:00:15.234Z,11.18
2023-05-16T00:02:42.167Z,11.12
2023-05-16T00:05:10.634Z,11.05
2023-05-16T00:07:37.180Z,10.97
2023-05-16T00:10:03.827Z,10.97
2023-05-16T00:12:30.383Z,10.96
2023-05-16T00:14:57.070Z,10.94
2023-05-16T00:17:23.916Z,10.87
2023-05-16T00:19:54.039Z,10.84
2023-05-16T00:22:21.027Z,10.85
2023-05-16T00:24:47.422Z,10.76
2023-05-16T00:27:13.836Z,10.67
2023-05-16T00:29:40.229Z,10.53
2023-05-16T00:32:08.885Z,10.47
2023-05-16T00:34:35.649Z,10.45
2023-05-16T00:37:02.214Z,10.31
2023-05-16T00:39:28.813Z,10.19
2023-05-16T00:41:56.949Z,10.16
2023-05-16T00:44:23.350Z,10.12
2023-05-16T00:46:49.840Z,10.02
2023-05-16T00:49:16.430Z,10.01
2023-05-16T00:51:42.988Z,9.99
2023-05-16T00:54:10.318Z,9.98
2023-05-16T00:56:36.945Z,9.98
2023-05-16T00:59:03.880Z,9.97
2023-05-16T01:01:30.553Z,9.94
2023-05-16T01:03:57.218Z,9.85
2023-05-16T01:06:23.883Z,9.84
2023-05-16T01:08:51.256Z,9.85
2023-05-16T01:11:23.358Z,9.85
2023-05-16T01:14:10.582Z,9.89
2023-05-16T01:16:42.986Z,9.91
2023-05-16T01:19:46.967Z,9.88
2023-05-16T01:22:29.249Z,9.81
2023-05-16T01:25:51.144Z,9.76
2023-05-16T01:28:18.165Z,9.69
2023-05-16T01:30:44.929Z,9.62
2023-05-16T01:33:11.372Z,9.57
2023-05-16T01:35:58.637Z,9.52
2023-05-16T01:38:46.186Z,9.51
2023-05-16T01:41:30.474Z,9.47
2023-05-16T01:44:05.162Z,9.42
2023-05-16T01:46:37.299Z,9.40
2023-05-16T01:49:35.826Z,9.39
2023-05-16T01:52:09.098Z,9.36
2023-05-16T01:54:39.478Z,9.38
2023-05-16T01:57:08.260Z,9.33
2023-05-16T01:59:36.044Z,9.34
2023-05-16T02:02:03.398Z,9.32
2023-05-16T02:04:29.941Z,9.30
2023-05-16T02:06:56.921Z,9.25
2023-05-16T02:09:23.453Z,9.20
2023-05-16T02:11:49.861Z,9.24
2023-05-16T02:14:16.296Z,9.18
2023-05-16T02:16:42.800Z,9.20
2023-05-16T02:19:09.287Z,9.19
2023-05-16T02:21:36.124Z,9.15
2023-05-16T02:24:02.526Z,9.21
2023-05-16T02:26:28.976Z,9.17
2023-05-16T02:28:55.397Z,9.18
2023-05-16T02:31:28.749Z,9.19
2023-05-16T02:33:55.850Z,9.16
2023-05-16T02:36:22.359Z,9.11
2023-05-16T02:38:48.791Z,9.11
2023-05-16T02:41:15.251Z,9.13
2023-05-16T02:43:41.747Z,9.13
2023-05-16T02:46:31.351Z,9.15
2023-05-16T02:48:57.859Z,9.14
2023-05-16T02:51:26.264Z,9.14
2023-05-16T02:53:53.262Z,9.18
2023-05-16T02:56:21.680Z,9.14
2023-05-16T02:58:49.854Z,9.15
2023-05-16T03:01:17.367Z,9.13
2023-05-16T03:03:43.920Z,9.14
2023-05-16T03:06:10.551Z,9.11
2023-05-16T03:08:37.219Z,9.12
2023-05-16T03:11:03.712Z,9.12
2023-05-16T03:13:30.323Z,9.10
2023-05-16T03:15:56.753Z,9.07
2023-05-16T03:18:23.251Z,9.00
2023-05-16T03:20:49.694Z,8.95
2023-05-16T03:23:16.122Z,8.93
2023-05-16T03:25:43.185Z,8.88
2023-05-16T03:28:09.773Z,8.83
2023-05-16T03:30:36.326Z,8.77
2023-05-16T03:33:04.140Z,8.71
2023-05-16T03:35:31.912Z,8.63
2023-05-16T03:37:58.560Z,8.57
2023-05-16T03:40:25.032Z,8.54
2023-05-16T03:42:52.636Z,8.49
2023-05-16T03:45:19.304Z,8.41
2023-05-16T03:47:45.873Z,8.41
2023-05-16T03:50:12.452Z,8.34
2023-05-16T03:52:38.998Z,8.25
2023-05-16T03:55:05.971Z,8.15
2023-05-16T03:57:33.288Z,8.08
2023-05-16T04:00:00.139Z,8.07
2023-05-16T04:02:26.620Z,8.06
2023-05-16T04:04:53.057Z,8.02
2023-05-16T04:07:20.753Z,7.98
2023-05-16T04:09:48.357Z,7.96
2023-05-16T04:12:14.740Z,7.90
2023-05-16T04:14:41.152Z,7.85
2023-05-16T04:17:07.688Z,7.86
2023-05-16T04:19:34.208Z,7.82
2023-05-16T04:22:00.658Z,7.81
2023-05-16T04:24:28.902Z,7.80
2023-05-16T04:26:55.667Z,7.79
2023-05-16T04:29:22.092Z,7.76
2023-05-16T04:31:48.545Z,7.74
2023-05-16T04:34:15.906Z,7.74
2023-05-16T04:36:42.349Z,7.74
2023-05-16T04:39:08.816Z,7.75
2023-05-16T04:41:36.151Z,7.71
2023-05-16T04:44:06.369Z,7.72
2023-05-16T04:46:32.851Z,7.78
2023-05-16T04:48:59.291Z,7.83
2023-05-16T04:51:25.782Z,7.91
2023-05-16T04:53:52.181Z,7.95
2023-05-16T04:56:18.935Z,8.02
2023-05-16T04:58:45.389Z,8.07
2023-05-16T05:01:11.852Z,8.16
2023-05-16T05:03:38.268Z,8.27
2023-05-16T05:06:04.930Z,8.34
2023-05-16T05:08:31.362Z,8.37
2023-05-16T05:10:57.815Z,8.40
2023-05-16T05:13:24.243Z,8.50
2023-05-16T05:15:52.334Z,8.64
2023-05-16T05:18:18.862Z,8.75
2023-05-16T05:20:45.417Z,8.85
2023-05-16T05:23:11.836Z,9.00
2023-05-16T05:25:38.769Z,9.16
2023-05-16T05:28:05.956Z,9.44
2023-05-16T05:30:32.396Z,9.78
2023-05-16T05:32:58.916Z,10.06
2023-05-16T05:35:25.529Z,10.50
2023-05-16T05:37:52.265Z,10.86
2023-05-16T05:40:18.657Z,11.30
2023-05-16T05:42:46.990Z,11.51
2023-05-16T05:45:14.689Z,11.82
2023-05-16T05:47:41.281Z,12.05
2023-05-16T05:50:08.932Z,12.27
2023-05-16T05:52:35.353Z,12.63
2023-05-16T05:55:01.975Z,13.07
2023-05-16T05:57:28.384Z,13.12
2023-05-16T05:59:54.777Z,13.25
2023-05-16T06:02:21.339Z,13.32
2023-05-16T06:04:47.981Z,13.53
2023-05-16T06:07:16.073Z,13.97
2023-05-16T06:09:43.487Z,14.44
2023-05-16T06:12:09.960Z,13.87
2023-05-16T06:14:36.408Z,14.36
2023-05-16T06:17:02.917Z,14.69
2023-05-16T06:19:29.485Z,15.02
2023-05-16T06:21:56.266Z,14.62
2023-05-16T06:24:22.855Z,14.94
2023-05-16T06:26:50.264Z,14.86
2023-05-16T06:29:17.436Z,15.48
2023-05-16T06:31:46.423Z,15.43
2023-05-16T06:34:13.087Z,15.58
2023-05-16T06:36:39.524Z,15.60
2023-05-16T06:39:05.969Z,15.46
2023-05-16T06:41:33.040Z,15.65
2023-05-16T06:43:59.701Z,15.31
2023-05-16T06:46:26.391Z,15.56
2023-05-16T06:48:52.943Z,15.68
2023-05-16T06:51:19.420Z,15.69
2023-05-16T06:53:48.738Z,15.82
2023-05-16T06:56:15.166Z,15.83
2023-05-16T06:58:41.927Z,15.34
2023-05-16T07:01:08.446Z,15.09
2023-05-16T07:03:35.238Z,15.05
2023-05-16T07:06:01.728Z,15.28
2023-05-16T07:08:28.226Z,15.48
2023-05-16T07:10:54.692Z,15.49
2023-05-16T07:13:21.272Z,15.12
2023-05-16T07:15:47.722Z,14.89
2023-05-16T07:18:14.312Z,14.38
2023-05-16T07:20:40.947Z,14.18
2023-05-16T07:23:07.452Z,13.89
2023-05-16T07:25:33.986Z,13.66
2023-05-16T07:28:01.006Z,13.26
2023-05-16T07:30:27.632Z,13.41
2023-05-16T07:32:55.262Z,13.29
2023-05-16T07:35:21.724Z,13.75
2023-05-16T07:37:48.234Z,13.81
2023-05-16T07:40:14.969Z,13.89
2023-05-16T07:42:41.416Z,14.12
2023-05-16T07:45:08.370Z,14.23
2023-05-16T07:47:35.443Z,14.19
2023-05-16T07:50:02.094Z,14.35
2023-05-16T07:52:28.598Z,14.77
2023-05-16T07:54:55.040Z,14.97
2023-05-16T07:57:22.765Z,15.37
2023-05-16T07:59:52.373Z,15.94
2023-05-16T08:02:19.355Z,15.85
2023-05-16T08:04:46.984Z,16.01
2023-05-16T08:07:13.629Z,16.49
2023-05-16T08:09:40.249Z,17.04
2023-05-16T08:12:07.241Z,17.65
2023-05-16T08:14:33.930Z,17.81
2023-05-16T08:17:00.895Z,18.03
2023-05-16T08:19:27.519Z,17.96
2023-05-16T08:21:54.104Z,17.63
2023-05-16T08:24:20.628Z,17.34
2023-05-16T08:26:47.238Z,17.09
2023-05-16T08:29:13.840Z,16.57
2023-05-16T08:31:40.411Z,16.37
2023-05-16T08:34:06.926Z,16.35
2023-05-16T08:36:35.547Z,15.87
2023-05-16T08:39:02.174Z,15.94
2023-05-16T08:41:29.406Z,15.73
2023-05-16T08:43:56.090Z,16.00
2023-05-16T08:46:23.936Z,15.96
2023-05-16T08:48:54.290Z,16.03
2023-05-16T08:51:21.318Z,16.07
2023-05-16T08:53:57.512Z,16.25
2023-05-16T08:56:25.177Z,16.03
2023-05-16T08:58:55.195Z,15.79
2023-05-16T09:01:22.948Z,15.51
2023-05-16T09:03:51.058Z,15.40
2023-05-16T09:06:17.775Z,15.33
2023-05-16T09:08:44.591Z,15.14
2023-05-16T09:11:11.187Z,14.83
2023-05-16T09:13:39.387Z,14.58
2023-05-16T09:16:11.012Z,14.36
2023-05-16T09:18:38.040Z,14.28
2023-05-16T09:21:07.891Z,14.24
2023-05-16T09:23:36.973Z,13.99
2023-05-16T09:26:05.542Z,13.85
2023-05-16T09:28:32.161Z,13.95
2023-05-16T09:30:59.419Z,14.12
2023-05-16T09:33:29.682Z,14.22
2023-05-16T09:36:01.005Z,14.32
2023-05-16T09:38:28.549Z,14.45
2023-05-16T09:40:55.697Z,14.47
2023-05-16T09:43:27.086Z,14.59
2023-05-16T09:45:54.021Z,14.39
2023-05-16T09:48:21.777Z,14.65
2023-05-16T09:50:52.465Z,14.82
2023-05-16T09:53:27.163Z,15.04
2023-05-16T09:56:12.324Z,15.29
2023-05-16T09:58:41.557Z,15.45
2023-05-16T10:01:08.847Z,15.39
2023-05-16T10:03:40.751Z,15.17
2023-05-16T10:06:08.459Z,15.17
2023-05-16T10:08:36.851Z,15.11
2023-05-16T10:11:06.829Z,14.68
2023-05-16T10:13:35.809Z,14.94
2023-05-16T10:16:07.803Z,15.05
2023-05-16T10:18:35.886Z,15.12
2023-05-16T10:21:07.396Z,15.18
2023-05-16T10:23:37.208Z,15.32
2023-05-16T10:26:06.022Z,15.40
2023-05-16T10:28:33.173Z,15.52
2023-05-16T10:31:01.716Z,15.51
2023-05-16T10:33:28.407Z,15.25
2023-05-16T10:35:55.591Z,15.10
2023-05-16T10:38:24.459Z,14.72
2023-05-16T10:40:51.271Z,14.79
2023-05-16T10:43:30.421Z,14.82
2023-05-16T10:45:58.654Z,14.73
2023-05-16T10:48:36.427Z,14.71
2023-05-16T10:51:03.927Z,14.82
2023-05-16T10:53:33.126Z,14.92
2023-05-16T10:55:59.509Z,14.85
2023-05-16T10:58:35.250Z,15.12
2023-05-16T11:01:30.037Z,15.38
2023-05-16T11:03:59.844Z,15.56
2023-05-16T11:06:27.424Z,15.79
2023-05-16T11:09:13.464Z,15.96
2023-05-16T11:11:52.192Z,16.11
2023-05-16T11:14:33.949Z,16.19
2023-05-16T11:17:14.093Z,16.23
2023-05-16T11:19:44.107Z,16.29
2023-05-16T11:22:19.313Z,16.15
2023-05-16T11:24:55.690Z,16.29
2023-05-16T11:27:30.999Z,16.40
2023-05-16T11:30:12.772Z,16.56
2023-05-16T11:32:41.088Z,16.76
2023-05-16T11:35:11.049Z,16.60
2023-05-16T11:37:39.719Z,16.30
2023-05-16T11:40:17.486Z,15.95
2023-05-16T11:42:50.420Z,15.80
2023-05-16T11:45:19.159Z,15.64
2023-05-16T11:47:47.991Z,15.34
2023-05-16T11:50:19.673Z,15.15
2023-05-16T11:52:48.249Z,14.88
2023-05-16T11:55:28.331Z,14.72
2023-05-16T11:57:59.917Z,14.42
2023-05-16T12:00:27.541Z,14.20
2023-05-16T12:03:01.257Z,14.09
2023-05-16T12:05:29.114Z,14.11
2023-05-16T12:07:55.854Z,13.96
2023-05-16T12:10:22.336Z,14.04
2023-05-16T12:12:54.746Z,14.29
2023-05-16T12:15:22.530Z,14.48
2023-05-16T12:17:49.560Z,14.75
2023-05-16T12:20:17.022Z,15.05
2023-05-16T12:22:45.292Z,15.33
2023-05-16T12:25:22.360Z,15.45
2023-05-16T12:27:49.119Z,15.48
2023-05-16T12:30:26.899Z,15.37
2023-05-16T12:33:05.815Z,15.27
2023-05-16T12:36:06.806Z,15.11
2023-05-16T12:38:33.396Z,14.96
2023-05-16T12:40:59.981Z,14.82
2023-05-16T12:43:27.751Z,14.77
2023-05-16T12:45:56.652Z,14.55
2023-05-16T12:48:25.005Z,14.54
2023-05-16T12:50:51.507Z,14.64
2023-05-16T12:53:18.958Z,14.85
2023-05-16T12:55:45.662Z,15.06
2023-05-16T12:58:12.721Z,15.34
2023-05-16T13:00:39.428Z,15.63
2023-05-16T13:03:06.418Z,15.89
2023-05-16T13:05:33.255Z,16.09
2023-05-16T13:07:59.897Z,16.24
2023-05-16T13:10:27.135Z,16.36
2023-05-16T13:12:53.951Z,16.65
2023-05-16T13:15:20.478Z,16.62
2023-05-16T13:17:48.529Z,16.65
2023-05-16T13:20:15.580Z,16.79
2023-05-16T13:22:44.846Z,16.87
2023-05-16T13:25:11.760Z,17.09
2023-05-16T13:27:38.440Z,17.15
2023-05-16T13:30:05.773Z,17.30
2023-05-16T13:32:32.392Z,17.16
2023-05-16T13:34:58.921Z,17.24
2023-05-16T13:37:25.755Z,17.13
2023-05-16T13:39:54.672Z,17.08
2023-05-16T13:42:21.228Z,17.21
2023-05-16T13:44:47.669Z,16.97
2023-05-16T13:47:14.361Z,16.98
2023-05-16T13:49:40.889Z,16.96
2023-05-16T13:52:07.422Z,17.00
2023-05-16T13:54:34.140Z,16.89
2023-05-16T13:57:02.127Z,16.63
2023-05-16T13:59:48.692Z,16.57
2023-05-16T14:02:15.325Z,16.53
2023-05-16T14:04:41.918Z,16.55
2023-05-16T14:07:10.857Z,16.53
2023-05-16T14:09:39.388Z,16.46
2023-05-16T14:12:08.882Z,16.26
2023-05-16T14:14:35.929Z,16.07
2023-05-16T14:17:03.810Z,15.97
2023-05-16T14:19:31.390Z,15.67
2023-05-16T14:21:58.155Z,15.70
2023-05-16T14:24:34.828Z,15.61
2023-05-16T14:27:01.886Z,15.59
2023-05-16T14:29:28.541Z,15.51
2023-05-16T14:31:55.330Z,15.40
2023-05-16T14:34:22.402Z,15.46
2023-05-16T14:36:49.595Z,15.63
2023-05-16T14:39:16.498Z,15.73
2023-05-16T14:41:43.088Z,15.63
2023-05-16T14:44:09.824Z,15.71
2023-05-16T14:46:36.329Z,15.73
2023-05-16T14:49:02.873Z,15.71
2023-05-16T14:51:29.551Z,15.67
2023-05-16T14:53:56.278Z,15.63
2023-05-16T14:56:22.973Z,15.62
2023-05-16T14:58:49.777Z,15.56
2023-05-16T15:01:16.722Z,15.49
2023-05-16T15:03:54.658Z,15.39
2023-05-16T15:09:03.165Z,15.37
2023-05-16T15:14:10.875Z,15.26
2023-05-16T15:16:39.361Z,15.25
2023-05-16T15:19:06.102Z,15.30
2023-05-16T15:21:32.745Z,15.32
2023-05-16T15:23:59.704Z,15.41
2023-05-16T15:26:26.582Z,15.37
2023-05-16T15:28:55.530Z,15.26
2023-05-16T15:31:22.740Z,15.27
2023-05-16T15:33:49.447Z,15.28
2023-05-16T15:36:15.939Z,15.35
2023-05-16T15:38:45.503Z,15.34
2023-05-16T15:41:18.689Z,15.31
2023-05-16T15:43:53.257Z,15.24
2023-05-16T15:46:19.811Z,15.20
2023-05-16T15:48:46.395Z,15.18
2023-05-16T15:51:13.247Z,15.25
2023-05-16T15:53:39.735Z,15.33
2023-05-16T15:56:07.065Z,15.56
2023-05-16T15:58:33.732Z,15.59
2023-05-16T16:01:00.333Z,15.61
2023-05-16T16:03:26.919Z,15.61
2023-05-16T16:05:53.548Z,15.64
2023-05-16T16:08:20.895Z,15.56
2023-05-16T16:10:47.382Z,15.56
2023-05-16T16:13:13.871Z,15.51
2023-05-16T16:15:42.140Z,15.48
2023-05-16T16:18:09.332Z,15.37
2023-05-16T16:20:35.901Z,15.41
2023-05-16T16:23:02.550Z,15.38
2023-05-16T16:25:29.362Z,15.38
2023-05-16T16:27:56.246Z,15.30
2023-05-16T16:30:22.742Z,15.26
2023-05-16T16:32:49.290Z,15.22
2023-05-16T16:35:16.063Z,15.23
2023-05-16T16:37:46.623Z,15.17
2023-05-16T16:40:21.521Z,15.03
2023-05-16T16:42:48.364Z,14.77
2023-05-16T16:45:14.951Z,14.72
2023-05-16T16:47:41.888Z,14.60
2023-05-16T16:50:09.008Z,14.50
2023-05-16T16:52:45.927Z,14.41
2023-05-16T16:55:13.075Z,14.45
2023-05-16T16:57:39.553Z,14.40
2023-05-16T17:00:07.294Z,14.30
2023-05-16T17:02:33.859Z,14.20
2023-05-16T17:05:00.503Z,14.19
2023-05-16T17:07:27.228Z,14.16
2023-05-16T17:09:56.149Z,14.13
2023-05-16T17:12:22.819Z,14.02
2023-05-16T17:14:50.360Z,13.93
2023-05-16T17:17:18.124Z,13.89
2023-05-16T17:19:47.743Z,13.87
2023-05-16T17:22:14.586Z,13.81
2023-05-16T17:24:41.132Z,13.82
2023-05-16T17:27:07.584Z,13.79
2023-05-16T17:29:34.188Z,13.74
2023-05-16T17:32:01.095Z,13.67
2023-05-16T17:34:27.659Z,13.65
2023-05-16T17:36:54.224Z,13.64
2023-05-16T17:39:20.910Z,13.62
2023-05-16T17:41:47.609Z,13.53
2023-05-16T17:44:14.104Z,13.46
2023-05-16T17:46:40.580Z,13.45
2023-05-16T17:49:07.992Z,13.39
2023-05-16T17:51:52.228Z,13.39
2023-05-16T17:54:20.106Z,13.31
2023-05-16T17:56:47.568Z,13.28
2023-05-16T17:59:14.985Z,13.25
2023-05-16T18:01:42.088Z,13.19
2023-05-16T18:04:09.212Z,13.17
2023-05-16T18:06:37.690Z,13.14
2023-05-16T18:09:06.983Z,13.04
2023-05-16T18:11:34.326Z,13.04
2023-05-16T18:14:02.080Z,13.01
2023-05-16T18:16:29.890Z,12.98
2023-05-16T18:18:57.862Z,12.98
2023-05-16T18:21:24.682Z,12.94
2023-05-16T18:23:51.759Z,12.89
2023-05-16T18:26:19.296Z,12.89
2023-05-16T18:28:46.367Z,12.89
2023-05-16T18:31:12.855Z,12.89
2023-05-16T18:33:39.410Z,12.82
2023-05-16T18:36:06.162Z,12.82
2023-05-16T18:38:33.717Z,12.78
2023-05-16T18:41:00.945Z,12.76
2023-05-16T18:43:27.563Z,12.78
2023-05-16T18:45:54.065Z,12.79
2023-05-16T18:48:20.658Z,12.78
2023-05-16T18:50:47.205Z,12.81
2023-05-16T18:53:13.706Z,12.79
2023-05-16T18:55:40.167Z,12.75
2023-05-16T18:58:07.015Z,12.76
2023-05-16T19:00:34.350Z,12.77
2023-05-16T19:03:01.240Z,12.77
2023-05-16T19:05:28.141Z,12.75
2023-05-16T19:07:54.994Z,12.77
2023-05-16T19:10:21.624Z,12.79
2023-05-16T19:12:49.096Z,12.77
2023-05-16T19:15:15.851Z,12.79
2023-05-16T19:17:42.518Z,12.78
2023-05-16T19:20:10.867Z,12.77
2023-05-16T19:22:37.779Z,12.75
2023-05-16T19:25:05.495Z,12.69
2023-05-16T19:27:32.468Z,12.69
2023-05-16T19:29:58.925Z,12.68
2023-05-16T19:32:25.562Z,12.65
2023-05-16T19:34:52.282Z,12.63
2023-05-16T19:37:18.984Z,12.62
2023-05-16T19:39:45.543Z,12.60
2023-05-16T19:42:12.013Z,12.63
2023-05-16T19:44:38.532Z,12.61
2023-05-16T19:47:05.426Z,12.58
2023-05-16T19:49:32.096Z,12.57
2023-05-16T19:51:58.574Z,12.56
2023-05-16T19:54:25.091Z,12.57
2023-05-16T19:56:51.582Z,12.56
2023-05-16T19:59:18.216Z,12.57
2023-05-16T20:01:45.105Z,12.59
2023-05-16T20:04:11.830Z,12.56
2023-05-16T20:06:38.468Z,12.54
2023-05-16T20:09:06.166Z,12.50
2023-05-16T20:11:33.077Z,12.47
2023-05-16T20:14:00.153Z,12.40
2023-05-16T20:16:27.430Z,12.38
2023-05-16T20:18:54.303Z,12.35
2023-05-16T20:21:21.016Z,12.33
2023-05-16T20:23:47.645Z,12.30
2023-05-16T20:26:14.960Z,12.27
2023-05-16T20:28:42.226Z,12.26
2023-05-16T20:31:08.788Z,12.24
2023-05-16T20:33:35.602Z,12.22
2023-05-16T20:36:02.320Z,12.21
2023-05-16T20:38:28.886Z,12.19
2023-05-16T20:40:55.752Z,12.16
2023-05-16T20:43:22.584Z,12.13
2023-05-16T20:45:49.738Z,12.09
2023-05-16T20:48:16.383Z,12.06
2023-05-16T20:50:42.983Z,12.05
2023-05-16T20:53:09.435Z,12.01
2023-05-16T20:55:35.989Z,11.97
2023-05-16T20:58:02.710Z,11.96
2023-05-16T21:00:29.244Z,11.89
2023-05-16T21:02:55.800Z,11.86
2023-05-16T21:05:25.633Z,11.84
2023-05-16T21:07:53.110Z,11.84
2023-05-16T21:10:20.050Z,11.81
2023-05-16T21:12:46.538Z,11.82
2023-05-16T21:15:12.996Z,11.83
2023-05-16T21:17:40.968Z,11.84
2023-05-16T21:20:08.319Z,11.83
2023-05-16T21:22:35.874Z,11.80
2023-05-16T21:25:02.422Z,11.75
2023-05-16T21:27:28.904Z,11.69
2023-05-16T21:29:55.375Z,11.67
2023-05-16T21:32:21.945Z,11.65
2023-05-16T21:34:50.537Z,11.55
2023-05-16T21:37:17.030Z,11.50
2023-05-16T21:39:43.541Z,11.48
2023-05-16T21:42:09.989Z,11.46
2023-05-16T21:44:36.456Z,11.41
2023-05-16T21:47:03.759Z,11.33
2023-05-16T21:49:30.314Z,11.30
2023-05-16T21:51:56.821Z,11.27
2023-05-16T21:54:23.273Z,11.21
2023-05-16T21:56:49.723Z,11.23
2023-05-16T21:59:16.270Z,11.16
2023-05-16T22:01:42.896Z,11.13
2023-05-16T22:04:09.609Z,11.10
2023-05-16T22:06:36.191Z,11.08
2023-05-16T22:09:02.663Z,11.05
2023-05-16T22:11:29.242Z,11.03
2023-05-16T22:13:56.183Z,11.00
2023-05-16T22:16:22.696Z,11.00
2023-05-16T22:18:49.426Z,10.98
2023-05-16T22:21:20.100Z,10.98
2023-05-16T22:23:46.497Z,10.94
2023-05-16T22:26:13.023Z,10.89
2023-05-16T22:28:39.508Z,10.88
2023-05-16T22:31:06.006Z,10.83
2023-05-16T22:33:32.604Z,10.78
2023-05-16T22:35:59.144Z,10.71
2023-05-16T22:38:25.622Z,10.67
2023-05-16T22:40:52.837Z,10.62
2023-05-16T22:43:19.460Z,10.58
2023-05-16T22:45:45.931Z,10.54
2023-05-16T22:48:12.521Z,10.47
2023-05-16T22:50:39.087Z,10.41
2023-05-16T22:53:05.581Z,10.36
2023-05-16T22:55:33.825Z,10.29
2023-05-16T22:58:00.670Z,10.25
2023-05-16T23:00:27.195Z,10.17
2023-05-16T23:02:53.794Z,10.13
2023-05-16T23:05:20.533Z,10.08
2023-05-16T23:07:46.993Z,10.02
2023-05-16T23:10:13.532Z,9.99
2023-05-16T23:12:40.004Z,9.90
2023-05-16T23:15:09.951Z,9.86
2023-05-16T23:17:38.134Z,9.80
2023-05-16T23:20:07.893Z,9.75
2023-05-16T23:22:34.469Z,9.72
2023-05-16T23:25:00.995Z,9.68
2023-05-16T23:27:27.577Z,9.63
2023-05-16T23:29:54.124Z,9.59
2023-05-16T23:32:20.801Z,9.54
2023-05-16T23:34:47.305Z,9.51
2023-05-16T23:37:13.794Z,9.48
2023-05-16T23:39:40.904Z,9.44
2023-05-16T23:42:07.527Z,9.38
2023-05-16T23:44:34.804Z,9.33
2023-05-16T23:47:01.345Z,9.31
2023-05-16T23:49:27.756Z,9.26
2023-05-16T23:51:57.997Z,9.21
2023-05-16T23:54:26.180Z,9.18
2023-05-16T23:56:53.205Z,9.15
2023-05-16T23:59:19.780Z,9.10
